KGOV

Details ICAO KGOV
Name GRAYLING AAF
Region United States
Timezone America/Detroit (UTC-5.0)
Plans Departing 1
Arriving 1
Stats Elevation 1,158 ft / 353 m (AMSL)
Location 44.680333° -84.728812°
Runways 2
Magnetic Variation 6.776° W
Sunrise 2017-12-16 13:11:25 UTC / 2017-12-16 08:11:25 Local
Sunset 2017-12-16 22:00:40 UTC / 2017-12-16 17:00:40 Local
Advertisement - Login to hide

Runways

ID Width Length Bearing (true) Bearing (mag) Surface Threshold Offset Overrun Length
05 150 ft / 46 m 4,995 ft / 1,523 m 46.02° 52.80° Concrete 0 ft / 0 m 1,070 ft / 326 m
14 150 ft / 46 m 5,005 ft / 1,525 m 136.18° 142.96° Asphalt 0 ft / 0 m 1,350 ft / 411 m
23 150 ft / 46 m 4,995 ft / 1,523 m 226.03° 232.81° Concrete 0 ft / 0 m 0 ft / 0 m
32 150 ft / 46 m 5,005 ft / 1,525 m 316.19° 322.97° Asphalt 300 ft / 91 m 0 ft / 0 m

Map

Weather


0- 5 10 15 20 25 30 35+ Temperature / ° C

Clouds and Precipitation
Forecast for 2017-12-17 00:00 UTC. Updated an hour ago

Ground ~20,000 ft ~40,000 ft Winds

METAR

KGOV 170035Z AUTO 06006KT 10SM BKN019 OVC100 M10/M13 A3015 RMK AO2 T11001130

TAF

Not found

Frequencies

Recorded 119.07 MHz AWOS 3
Ground 121.90 MHz GND
Approach 132.90 MHz MINNEAPOLIS APP/DEP
Unicom 122.80 MHz CTAF/UNICOM
Tower 126.20 MHz TWR
Warning: Do not use this data for real-world aviation or navigation. No guarantee of current accuracy is given.